Latest Weather Observations for Beaudesert AWS

IDQ60801

Issued at 9:12 am EST Wednesday 16 January 2019 (issued every 10 minutes, with the page automatically refreshed every 10 minutes)

About weather observations | Map of weather stations | Latest weather observations for QLD | Other Formats
Station Details ID: 040983 Name: BEAUDESERT DRUMLEY STREET Lat: -27.97 Lon: 152.99 Height: 47.81 m
Data from the previous 72 hours. | See also: Recent months at Beaudesert AWS
Date/Time
EST
Temp
°C
App
Temp
°C
Dew
Point
°C
Rel
Hum
%
Delta-T
°C
Wind Press
QNH
hPa
Press
MSL
hPa
Rain since
9am
mm
Dir  Spd
km/h
Gust
km/h
Spd
kts
Gust
kts
16/09:00am 27.6 29.3 18.0 55 6.1 WNW 6 11 3 6 1014.7 1014.5 0.0
16/08:30am 26.1 27.9 18.2 61 5.0 NW 6 7 3 4 1014.8 1014.6 0.0
16/08:00am 25.6 27.4 18.3 64 4.6 WNW 6 9 3 5 1014.9 1014.7 0.0
16/07:30am 25.5 27.3 18.4 65 4.5 NW 6 9 3 5 1015.0 1014.8 0.0
16/07:00am 25.1 27.4 18.5 67 4.2 NNW 4 9 2 5 1015.0 1014.8 0.0
16/06:30am 24.0 27.4 19.3 75 3.0 CALM 0 6 0 3 1014.7 1014.5 0.0
16/06:00am 22.5 26.2 19.9 85 1.7 CALM 0 0 0 0 1014.3 1014.1 0.0
16/05:30am 21.7 25.1 19.3 86 1.5 CALM 0 0 0 0 1014.0 1013.7 0.0
16/05:00am 21.6 24.9 19.0 85 1.6 CALM 0 0 0 0 1013.6 1013.3 0.0
16/04:30am 21.4 24.2 18.8 85 1.6 NW 2 6 1 3 1013.5 1013.2 0.0
16/04:00am 22.2 25.5 19.2 83 1.9 CALM 0 0 0 0 1013.3 1013.0 0.0
16/03:30am 22.2 25.6 19.4 84 1.8 CALM 0 0 0 0 1013.1 1012.8 0.0
16/03:00am 22.6 26.1 19.6 83 1.9 CALM 0 0 0 0 1013.1 1012.8 0.0
16/02:30am 23.1 26.4 19.1 78 2.5 CALM 0 0 0 0 1013.2 1012.9 0.0
16/02:00am 22.9 26.0 18.7 77 2.7 CALM 0 0 0 0 1013.4 1013.1 0.0
16/01:30am 23.6 27.0 19.3 77 2.7 CALM 0 0 0 0 1013.6 1013.3 0.0
16/01:00am 23.9 27.5 19.8 78 2.6 CALM 0 0 0 0 1014.2 1014.0 0.0
16/12:30am 23.9 27.4 19.6 77 2.8 CALM 0 4 0 2 1014.5 1014.3 0.0
16/12:00am 23.6 26.8 19.7 79 2.5 NE 2 4 1 2 1014.7 1014.5 0.0
 
Date/Time
EST
Temp
°C
App
Temp
°C
Dew
Point
°C
Rel
Hum
%
Delta-T
°C
Wind Press
QNH
hPa
Press
MSL
hPa
Rain since
9am
mm
Dir  Spd
km/h
Gust
km/h
Spd
kts
Gust
kts
15/11:30pm 23.2 26.8 19.8 81 2.2 CALM 0 0 0 0 1015.1 1014.9 0.0
15/11:00pm 23.3 26.6 19.2 78 2.6 CALM 0 0 0 0 1015.3 1015.1 0.0
15/10:30pm 23.3 26.6 19.2 78 2.6 CALM 0 0 0 0 1015.3 1015.1 0.0
15/10:00pm 23.4 26.2 18.9 76 2.9 NE 2 4 1 2 1015.3 1015.1 0.0
15/09:30pm 23.7 26.6 19.0 75 3.0 NNE 2 7 1 4 1015.3 1015.1 0.0
15/09:00pm 24.3 26.8 19.1 73 3.3 NE 4 7 2 4 1015.2 1015.0 0.0
15/08:30pm 24.6 27.1 19.0 71 3.6 NE 4 9 2 5 1015.1 1014.9 0.0
15/08:00pm 25.0 27.0 18.7 68 4.0 NE 6 11 3 6 1015.0 1014.8 0.0
15/07:30pm 25.5 26.8 18.4 65 4.5 NE 9 20 5 11 1014.5 1014.3 0.0
15/07:00pm 26.2 27.6 18.6 63 4.8 ENE 9 17 5 9 1014.1 1013.9 0.0
15/06:30pm 27.1 28.0 18.4 59 5.6 NE 11 20 6 11 1013.6 1013.3 0.0
15/06:00pm 28.2 29.1 18.3 55 6.3 NE 11 22 6 12 1013.1 1012.8 0.0
15/05:30pm 29.3 29.3 18.1 51 7.2 NE 15 24 8 13 1012.8 1012.5 0.0
15/05:00pm 30.1 30.1 18.2 49 7.6 NE 15 26 8 14 1012.2 1011.9 0.0
15/04:30pm 31.3 31.8 18.3 46 8.4 NE 13 22 7 12 1012.0 1011.7 0.0
15/04:00pm 32.6 33.0 19.1 44 8.9 ENE 15 26 8 14 1011.9 1011.6 0.0
15/03:30pm 33.2 33.7 19.3 44 9.2 ENE 15 30 8 16 1012.0 1011.7 0.0
15/03:00pm 33.2 33.6 18.9 42 9.4 NE 15 30 8 16 1012.2 1011.9 0.0
15/02:30pm 33.9 35.2 18.4 40 10.1 NNE 9 20 5 11 1012.4 1012.1 0.0
15/02:00pm 33.8 34.9 17.9 38 10.3 NE 9 19 5 10 1012.9 1012.6 0.0
15/01:30pm 33.3 34.2 16.6 36 10.6 W 7 15 4 8 1013.2 1012.9 0.0
15/01:00pm 33.0 33.2 16.8 38 10.3 NNW 11 17 6 9 1013.7 1013.4 0.0
15/12:30pm 32.2 33.1 16.5 39 9.9 NW 7 17 4 9 1014.1 1013.9 0.0
15/12:00pm 32.4 33.1 17.1 40 9.7 NNW 9 19 5 10 1014.5 1014.3 0.0
15/11:30am 31.4 32.4 17.7 44 8.8 WNW 9 15 5 8 1015.1 1014.9 0.0
15/11:00am 30.8 31.5 17.1 43 8.7 NNE 9 15 5 8 1015.7 1015.5 0.0
15/10:30am 30.3 31.6 18.4 49 7.7 WSW 9 17 5 9 1016.2 1016.0 0.0
15/10:00am 29.8 32.2 17.9 48 7.6 NW 2 7 1 4 1016.6 1016.4 0.0
15/09:30am 28.4 30.4 17.9 53 6.7 W 4 6 2 3 1016.9 1016.7 0.0
15/09:00am 27.5 29.8 18.5 58 5.8 WNW 4 7 2 4 1017.1 1016.9 0.0
15/08:30am 27.2 29.6 18.8 60 5.4 SSE 4 7 2 4 1017.1 1016.9 0.0
15/08:00am 25.9 28.5 19.3 67 4.2 SE 4 7 2 4 1017.2 1017.0 0.0
15/07:30am 25.1 28.1 19.2 70 3.8 SE 2 6 1 3 1017.2 1017.0 0.0
15/07:00am 22.5 25.4 18.3 77 2.6 CALM 0 4 0 2 1017.3 1017.1 0.0
15/06:30am 20.5 22.8 17.7 84 1.7 ENE 2 4 1 2 1017.2 1017.0 0.0
15/06:00am 19.4 22.0 17.5 89 1.2 CALM 0 0 0 0 1017.0 1016.8 0.0
15/05:30am 18.8 21.4 17.5 92 0.8 CALM 0 0 0 0 1016.6 1016.4 0.0
15/05:00am 18.4 20.9 17.2 93 0.7 CALM 0 0 0 0 1016.2 1016.0 0.0
15/04:30am 18.3 20.8 17.3 94 0.6 CALM 0 0 0 0 1015.9 1015.7 0.0
15/04:00am 18.5 20.7 17.5 94 0.6 ENE 2 4 1 2 1015.6 1015.4 0.0
15/03:30am 18.4 21.0 17.4 94 0.6 CALM 0 0 0 0 1015.6 1015.4 0.0
15/03:00am 18.5 21.0 17.2 92 0.8 CALM 0 0 0 0 1015.7 1015.5 0.0
15/02:30am 19.0 21.7 17.8 93 0.7 CALM 0 0 0 0 1015.7 1015.5 0.0
15/02:00am 19.0 21.5 17.3 90 1.0 CALM 0 0 0 0 1015.8 1015.6 0.0
15/01:30am 19.8 22.7 18.3 91 0.9 CALM 0 0 0 0 1016.0 1015.8 0.0
15/01:00am 20.2 23.0 18.0 87 1.4 CALM 0 0 0 0 1016.4 1016.2 0.0
15/12:30am 20.6 23.6 18.5 88 1.3 CALM 0 0 0 0 1016.6 1016.4 0.0
15/12:00am 20.5 23.4 18.3 87 1.4 CALM 0 0 0 0 1016.8 1016.6 0.0
 
Date/Time
EST
Temp
°C
App
Temp
°C
Dew
Point
°C
Rel
Hum
%
Delta-T
°C
Wind Press
QNH
hPa
Press
MSL
hPa
Rain since
9am
mm
Dir  Spd
km/h
Gust
km/h
Spd
kts
Gust
kts
14/11:30pm 20.9 23.8 18.3 85 1.6 CALM 0 0 0 0 1016.9 1016.7 0.0
14/11:00pm 21.2 24.1 18.2 83 1.9 CALM 0 0 0 0 1017.1 1016.9 0.0
14/10:30pm 22.4 25.6 18.8 80 2.3 CALM 0 0 0 0 1017.3 1017.1 0.0
14/10:00pm 23.2 26.2 19.2 78 2.5 ENE 2 4 1 2 1017.3 1017.1 0.0
14/09:30pm 23.2 26.3 18.7 76 2.8 CALM 0 0 0 0 1017.4 1017.2 0.0
14/09:00pm 23.4 26.0 18.3 73 3.2 ENE 2 7 1 4 1017.3 1017.1 0.0
14/08:30pm 23.9 26.8 18.3 71 3.5 CALM 0 6 0 3 1017.2 1017.0 0.0
14/08:00pm 24.5 26.3 18.4 69 3.9 ENE 6 9 3 5 1016.9 1016.7 0.0
14/07:30pm 24.9 26.6 18.1 66 4.3 ENE 6 11 3 6 1016.7 1016.5 0.0
14/07:00pm 25.4 26.2 18.1 64 4.6 E 11 19 6 10 1016.3 1016.1 0.0
14/06:30pm 26.3 26.3 18.2 61 5.1 ENE 15 24 8 13 1015.8 1015.6 0.0
14/06:00pm 27.2 26.9 18.2 58 5.7 ENE 17 28 9 15 1015.4 1015.2 0.0
14/05:30pm 28.2 28.5 18.0 54 6.5 ENE 13 28 7 15 1015.1 1014.9 0.0
14/05:00pm 29.2 29.3 18.3 51 7.0 ENE 15 24 8 13 1014.8 1014.6 0.0
14/04:30pm 29.6 29.1 17.8 49 7.5 ENE 17 32 9 17 1014.5 1014.3 0.0
14/04:00pm 30.3 29.4 18.1 48 7.8 ENE 20 35 11 19 1014.4 1014.2 0.0
14/03:30pm 30.8 30.1 18.2 47 8.1 ENE 19 33 10 18 1014.4 1014.2 0.0
14/03:00pm 31.9 31.5 18.1 43 8.9 ENE 17 30 9 16 1014.6 1014.4 0.0
14/02:30pm 31.9 31.4 17.8 43 9.1 ENE 17 26 9 14 1014.8 1014.6 0.0
14/02:00pm 32.7 32.7 17.3 39 9.8 ENE 13 20 7 11 1015.0 1014.8 0.0
14/01:30pm 33.2 33.7 17.4 39 10.1 ESE 11 24 6 13 1015.4 1015.2 0.0
14/01:00pm 32.0 31.1 15.9 38 10.1 E 15 26 8 14 1015.6 1015.4 0.0
14/12:30pm 32.3 32.1 16.6 39 9.9 E 13 24 7 13 1015.8 1015.6 0.0
14/12:00pm 31.1 31.4 15.9 40 9.5 E 9 17 5 9 1016.2 1016.0 0.0
14/11:30am 31.0 31.0 16.2 41 9.3 ESE 11 22 6 12 1016.8 1016.6 0.0
14/11:00am 31.5 31.6 16.6 40 9.4 ESE 11 20 6 11 1017.2 1017.0 0.0
14/10:30am 29.8 29.6 16.6 45 8.3 SSE 13 22 7 12 1017.5 1017.3 0.0
14/10:00am 28.5 28.1 16.1 47 7.7 SSE 13 22 7 12 1017.8 1017.6 0.0
14/09:30am 27.9 27.5 16.2 49 7.2 SE 13 24 7 13 1018.0 1017.8 0.0
14/09:00am 27.5 27.0 16.8 52 6.7 SSE 15 26 8 14 1018.0 1017.8 0.0
14/08:30am 27.2 27.0 16.8 53 6.5 SSE 13 22 7 12 1018.2 1018.0 0.0
14/08:00am 26.6 27.1 17.4 57 5.8 SSE 11 19 6 10 1018.3 1018.1 0.0
14/07:30am 25.2 26.4 16.9 60 5.1 SSE 6 11 3 6 1018.3 1018.1 0.0
14/07:00am 23.7 25.6 17.7 69 3.7 SSE 4 7 2 4 1018.3 1018.1 0.0
14/06:30am 21.6 23.2 16.8 74 2.9 SSE 4 6 2 3 1018.2 1018.0 0.0
14/06:00am 19.9 21.3 16.5 81 2.0 SSE 4 6 2 3 1017.9 1017.7 0.0
14/05:30am 18.1 20.2 16.3 89 1.1 CALM 0 0 0 0 1017.6 1017.4 0.0
14/05:00am 16.9 18.6 15.1 89 1.0 CALM 0 2 0 1 1017.4 1017.2 0.0
14/04:30am 18.2 20.1 15.8 86 1.4 CALM 0 2 0 1 1017.1 1016.9 0.0
14/04:00am 18.0 19.9 15.8 87 1.3 CALM 0 0 0 0 1017.0 1016.8 0.0
14/03:30am 17.9 19.6 15.2 84 1.6 CALM 0 0 0 0 1016.8 1016.6 0.0
14/03:00am 19.3 20.5 16.0 81 2.0 SSE 4 6 2 3 1016.4 1016.2 0.0
14/02:30am 19.1 20.3 16.0 82 1.8 SSE 4 6 2 3 1016.6 1016.4 0.0
14/02:00am 19.0 20.4 15.5 80 2.1 SSE 2 4 1 2 1017.0 1016.8 0.0
14/01:30am 19.6 21.6 15.9 79 2.2 CALM 0 0 0 0 1017.2 1017.0 0.0
14/01:00am 19.9 21.6 16.2 79 2.2 SSE 2 6 1 3 1017.5 1017.3 0.0
14/12:30am 19.1 21.0 15.8 81 2.0 CALM 0 4 0 2 1018.0 1017.8 0.0
14/12:00am 20.9 22.3 16.5 76 2.7 SSE 4 6 2 3 1018.3 1018.1 0.0
 
Date/Time
EST
Temp
°C
App
Temp
°C
Dew
Point
°C
Rel
Hum
%
Delta-T
°C
Wind Press
QNH
hPa
Press
MSL
hPa
Rain since
9am
mm
Dir  Spd
km/h
Gust
km/h
Spd
kts
Gust
kts
13/11:30pm 20.8 22.3 16.6 77 2.5 SSE 4 7 2 4 1018.6 1018.4 0.0
13/11:00pm 21.3 22.8 16.7 75 2.8 SSE 4 6 2 3 1018.7 1018.5 0.0
13/10:30pm 21.4 23.4 15.9 71 3.3 CALM 0 0 0 0 1018.6 1018.4 0.0
13/10:00pm 22.9 24.7 16.4 67 4.0 SSE 2 6 1 3 1018.7 1018.5 0.0
13/09:30pm 23.5 23.3 16.8 66 4.1 ESE 13 24 7 13 1018.6 1018.4 0.0
13/09:00pm 23.7 23.4 17.4 68 3.9 E 15 22 8 12 1018.4 1018.2 0.0
13/08:30pm 24.0 23.0 17.5 67 4.0 E 19 28 10 15 1018.1 1017.9 0.0
13/08:00pm 24.3 23.3 17.5 66 4.2 E 19 32 10 17 1017.7 1017.5 0.0
13/07:30pm 24.8 24.2 17.5 64 4.6 E 17 26 9 14 1017.4 1017.2 0.0
13/07:00pm 25.4 24.6 17.1 60 5.2 E 17 26 9 14 1016.9 1016.7 0.0
13/06:30pm 26.8 25.6 17.0 55 6.1 E 19 28 10 15 1016.4 1016.2 0.0
13/06:00pm 27.9 26.5 17.1 51 6.8 E 20 37 11 20 1015.7 1015.5 0.0
13/05:30pm 28.9 27.6 18.1 52 6.9 E 22 37 12 20 1015.0 1014.8 0.0
13/05:00pm 29.8 29.3 18.6 51 7.2 E 19 32 10 17 1014.7 1014.5 0.0
13/04:30pm 30.3 30.3 19.0 50 7.3 E 17 30 9 16 1014.5 1014.3 0.0
13/04:00pm 30.1 29.5 18.8 50 7.3 ENE 20 32 11 17 1014.4 1014.2 0.0
13/03:30pm 30.7 29.7 18.8 49 7.7 ENE 22 37 12 20 1014.5 1014.3 0.0
13/03:00pm 31.4 31.2 18.4 46 8.4 ENE 17 33 9 18 1014.5 1014.3 0.0
13/02:30pm 32.2 32.1 18.8 45 8.7 E 17 33 9 18 1014.7 1014.5 0.0
13/02:00pm 32.1 31.3 17.9 42 9.1 ENE 19 30 10 16 1015.0 1014.8 0.0
13/01:30pm 32.1 31.3 17.9 42 9.1 E 19 30 10 16 1015.3 1015.1 0.0
13/01:00pm 31.8 32.0 17.7 43 9.0 E 13 26 7 14 1015.6 1015.4 0.0
13/12:30pm 30.9 31.8 17.6 45 8.5 SE 9 17 5 9 1016.0 1015.8 0.0
13/12:00pm 31.7 32.3 17.6 43 9.0 E 11 26 6 14 1016.2 1016.0 0.0
13/11:30am 31.6 31.9 17.1 41 9.2 E 11 17 6 9 1016.7 1016.5 0.0
13/11:00am 30.4 29.7 16.4 43 8.8 ESE 15 26 8 14 1016.9 1016.7 0.0
13/10:30am 29.6 31.0 17.8 49 7.5 SE 7 15 4 8 1017.2 1017.0 0.0
13/10:00am 29.7 29.6 17.8 48 7.6 ESE 15 24 8 13 1017.4 1017.2 0.0
13/09:30am 28.9 28.9 17.1 49 7.4 ENE 13 28 7 15 1017.6 1017.4 0.0

Other Formats:

Comma delimited format used in spreadsheet applications
http://www.bom.gov.au/fwo/IDQ60801/IDQ60801.95575.axf

JavaScript Object Notation format (JSON) in row-major order
http://www.bom.gov.au/fwo/IDQ60801/IDQ60801.95575.json